Time;durP1;ratioP1;P1;durP2;ratioP2;P2;SDS_P1;SDS_P2;PMS_P1;PMS_P2;Temp;Humidity;BMP_temperature;BMP_pressure;BME280_temperature;BME280_humidity;BME280_pressure;Samples;Min_cycle;Max_cycle;Signal;HPM_P1;HPM_P2
2023/02/17 00:00:32;;;;;;;45.55;28.88;;;;;;;6.77;100.00;101154.81;5078711;28;20052;-79
2023/02/17 00:02:59;;;;;;;42.63;27.92;;;;;;;6.39;100.00;101101.13;5077284;28;20544;-79
2023/02/17 00:05:26;;;;;;;44.40;28.90;;;;;;;5.71;100.00;100986.66;5077544;28;20596;-80
2023/02/17 00:07:53;;;;;;;44.25;27.75;;;;;;;5.97;100.00;101014.25;5079273;28;20055;-80
2023/02/17 00:10:20;;;;;;;45.78;28.33;;;;;;;6.30;100.00;101065.31;5082463;28;20049;-82
2023/02/17 00:12:46;;;;;;;45.72;28.45;;;;;;;6.51;100.00;101100.91;5089543;28;20139;-82
2023/02/17 00:15:13;;;;;;;42.65;27.48;;;;;;;6.81;100.00;101146.81;5088467;28;20124;-79
2023/02/17 00:17:39;;;;;;;43.00;27.40;;;;;;;6.67;100.00;101123.38;5082332;28;20045;-81
2023/02/17 00:20:06;;;;;;;41.35;26.95;;;;;;;6.73;100.00;101116.28;5088848;28;20048;-81
2023/02/17 00:22:33;;;;;;;40.63;26.35;;;;;;;6.18;100.00;101026.13;5083015;28;20409;-81
2023/02/17 00:24:59;;;;;;;40.65;25.45;;;;;;;6.68;100.00;101103.19;5080760;28;20068;-80
2023/02/17 00:27:26;;;;;;;40.50;25.50;;;;;;;6.57;100.00;101078.88;5085502;28;20056;-80
2023/02/17 00:29:53;;;;;;;36.08;24.20;;;;;;;6.06;100.00;100978.16;5084367;28;20207;-80
2023/02/17 00:32:20;;;;;;;41.22;25.50;;;;;;;6.36;100.00;101034.56;5090176;28;20114;-78
2023/02/17 00:34:46;;;;;;;38.13;25.27;;;;;;;6.60;100.00;101068.28;5090445;28;20080;-81
2023/02/17 00:37:13;;;;;;;40.33;25.73;;;;;;;6.88;100.00;101111.56;5090551;28;20055;-79
2023/02/17 00:39:42;;;;;;;40.88;26.13;;;;;;;6.37;100.00;101026.63;5087227;28;20040;-80
2023/02/17 00:42:08;;;;;;;38.67;25.73;;;;;;;6.53;100.00;101062.28;5092094;28;20063;-79
2023/02/17 00:44:35;;;;;;;38.70;26.20;;;;;;;6.49;100.00;101060.59;5083221;28;20045;-80
2023/02/17 00:47:01;;;;;;;36.90;24.60;;;;;;;6.81;100.00;101116.97;5076854;28;20112;-78
2023/02/17 00:49:28;;;;;;;42.20;25.98;;;;;;;6.59;100.00;101072.69;5086156;28;20116;-79
2023/02/17 00:51:59;;;;;;;37.45;25.35;;;;;;;6.30;100.00;101014.50;5094320;28;20226;-79
2023/02/17 00:54:27;;;;;;;38.28;25.17;;;;;;;6.80;100.00;101099.44;5070515;28;20117;-80
2023/02/17 00:56:54;;;;;;;44.08;25.63;;;;;;;6.32;100.00;101020.59;5094805;28;20041;-79
2023/02/17 00:59:21;;;;;;;36.17;24.60;;;;;;;5.86;100.00;100952.22;5090583;28;20029;-78
2023/02/17 01:01:48;;;;;;;38.42;26.20;;;;;;;6.62;100.00;101079.63;5074132;28;20041;-80
2023/02/17 01:04:14;;;;;;;42.50;26.30;;;;;;;6.39;100.00;101045.03;5077550;28;20489;-78
2023/02/17 01:06:41;;;;;;;41.92;26.02;;;;;;;6.18;100.00;101006.84;5076796;28;20416;-79
2023/02/17 01:09:12;;;;;;;41.50;25.98;;;;;;;6.91;100.00;101142.25;5076317;28;20052;-79
2023/02/17 01:11:40;;;;;;;42.08;26.65;;;;;;;5.33;100.00;100879.66;5077135;28;20048;-79
2023/02/17 01:14:07;;;;;;;40.30;26.42;;;;;;;5.77;100.00;100965.53;5076579;28;20043;-82
2023/02/17 01:16:38;;;;;;;40.83;27.42;;;;;;;5.87;100.00;100988.13;5077140;28;20137;-80
2023/02/17 01:19:08;;;;;;;38.53;25.10;;;;;;;6.45;100.00;101084.38;5076094;28;20191;-81
2023/02/17 01:21:35;;;;;;;40.33;25.85;;;;;;;6.57;100.00;101092.91;5076539;28;20091;-80
2023/02/17 01:24:05;;;;;;;41.33;25.65;;;;;;;6.20;100.00;101024.31;5057684;28;20067;-78
2023/02/17 01:26:33;;;;;;;39.13;24.85;;;;;;;6.75;100.00;101114.50;5074106;28;20199;-78
2023/02/17 01:29:00;;;;;;;36.47;24.38;;;;;;;6.48;100.00;101058.84;5057181;28;20144;-81
2023/02/17 01:31:27;;;;;;;39.65;26.40;;;;;;;6.81;100.00;101109.09;5074684;28;20448;-80
2023/02/17 01:33:59;;;;;;;41.47;27.05;;;;;;;6.91;100.00;101127.31;5075003;28;20044;-79
2023/02/17 01:36:26;;;;;;;40.90;26.13;;;;;;;6.59;100.00;101077.94;5067017;28;20056;-81
2023/02/17 01:38:53;;;;;;;41.28;24.80;;;;;;;6.33;100.00;101043.38;5076131;28;20109;-80
2023/02/17 01:41:22;;;;;;;41.17;26.33;;;;;;;6.89;100.00;101121.22;5076940;28;20058;-79
2023/02/17 01:44:17;;;;;;;44.92;25.67;;;;;;;6.90;100.00;101116.81;5074457;28;20044;-80
2023/02/17 01:46:46;;;;;;;38.78;24.55;;;;;;;6.13;100.00;100987.69;5072815;28;20186;-80
2023/02/17 01:49:38;;;;;;;38.60;23.92;;;;;;;6.59;100.00;101050.75;5074008;28;20110;-79
2023/02/17 01:52:14;;;;;;;37.83;24.58;;;;;;;6.53;100.00;101019.31;5070129;28;20102;-80
2023/02/17 01:54:53;;;;;;;36.17;23.77;;;;;;;6.40;100.00;101002.91;5073776;28;20055;-80
2023/02/17 01:57:23;;;;;;;37.10;23.80;;;;;;;6.90;100.00;101069.44;5073786;28;20053;-79
2023/02/17 01:59:50;;;;;;;36.05;22.58;;;;;;;7.12;100.00;101088.25;5072162;28;20579;-80
2023/02/17 02:02:17;;;;;;;34.80;22.48;;;;;;;6.28;100.00;100937.41;5074079;28;20052;-79
2023/02/17 02:04:47;;;;;;;31.10;20.88;;;;;;;6.55;100.00;100973.66;5073275;28;20041;-80
2023/02/17 02:07:19;;;;;;;34.25;22.00;;;;;;;7.07;100.00;101048.88;5065918;28;20049;-81
2023/02/17 02:09:51;;;;;;;32.05;20.45;;;;;;;7.21;100.00;101067.00;5066990;28;20059;-79
2023/02/17 02:12:38;;;;;;;33.03;21.08;;;;;;;7.06;100.00;101036.59;5073592;28;20052;-80
2023/02/17 02:15:10;;;;;;;31.98;22.60;;;;;;;6.98;100.00;101006.91;5053837;28;20489;-80
2023/02/17 02:17:53;;;;;;;31.23;20.48;;;;;;;7.29;100.00;101049.22;5069571;28;20056;-80
2023/02/17 02:20:47;;;;;;;31.80;20.70;;;;;;;7.32;100.00;101028.09;5074175;28;20053;-79
2023/02/17 02:23:49;;;;;;;29.52;19.58;;;;;;;7.41;100.00;101046.28;5061992;28;20051;-80
2023/02/17 02:26:37;;;;;;;32.95;20.75;;;;;;;7.06;100.00;100978.66;5064695;28;20053;-81
2023/02/17 02:29:16;;;;;;;32.97;21.33;;;;;;;7.45;100.00;101033.91;5066203;28;20045;-78
2023/02/17 02:32:33;;;;;;;31.20;20.30;;;;;;;7.16;100.00;100989.84;5072677;28;20059;-81
2023/02/17 02:35:29;;;;;;;28.48;18.80;;;;;;;7.47;100.00;101027.72;5068368;28;20048;-82
2023/02/17 02:38:10;;;;;;;31.88;19.13;;;;;;;7.37;100.00;101010.41;5071045;28;20052;-83
2023/02/17 02:40:43;;;;;;;28.63;19.60;;;;;;;6.76;100.00;100885.47;5087020;28;20465;-81
2023/02/17 02:43:15;;;;;;;28.92;18.52;;;;;;;7.37;100.00;100982.28;5082683;28;20051;-80
2023/02/17 02:45:42;;;;;;;30.17;18.67;;;;;;;6.86;100.00;100894.00;5073125;28;20053;-81
2023/02/17 02:48:08;;;;;;;30.55;17.92;;;;;;;7.66;100.00;101014.97;5073464;28;20045;-82
2023/02/17 02:50:54;;;;;;;30.45;19.35;;;;;;;7.71;100.00;101013.91;5072475;28;20567;-82
2023/02/17 02:53:42;;;;;;;30.17;18.73;;;;;;;7.71;100.00;101008.66;5073384;28;20049;-81
2023/02/17 02:56:26;;;;;;;27.90;18.70;;;;;;;7.71;100.00;101006.00;5068391;28;20057;-81
2023/02/17 02:59:15;;;;;;;26.45;17.52;;;;;;;7.70;100.00;101006.06;5066128;28;20060;-82
2023/02/17 03:01:49;;;;;;;28.48;18.63;;;;;;;7.68;100.00;100999.97;5071209;28;20147;-81
2023/02/17 03:04:35;;;;;;;26.85;17.85;;;;;;;7.57;100.00;100981.78;5073324;28;20054;-81
2023/02/17 03:07:20;;;;;;;28.08;17.95;;;;;;;7.35;100.00;100944.56;5066813;28;20318;-80
2023/02/17 03:09:51;;;;;;;28.80;18.33;;;;;;;7.35;100.00;100944.56;5072629;28;20044;-79
2023/02/17 03:12:19;;;;;;;31.85;19.65;;;;;;;7.17;100.00;100916.06;5071966;28;20048;-79
2023/02/17 03:14:49;;;;;;;26.70;18.05;;;;;;;7.12;100.00;100904.75;5071949;28;20072;-79
2023/02/17 03:17:16;;;;;;;30.15;18.60;;;;;;;6.65;100.00;100833.06;5071386;28;20048;-78
2023/02/17 03:19:45;;;;;;;28.27;18.63;;;;;;;7.77;100.00;100998.84;5071374;28;20112;-79
2023/02/17 03:22:22;;;;;;;27.20;17.00;;;;;;;7.84;100.00;100996.03;5071894;28;20063;-83
2023/02/17 03:24:49;;;;;;;28.50;16.92;;;;;;;7.82;100.00;100983.78;5071618;28;20079;-80
2023/02/17 03:27:15;;;;;;;27.77;17.15;;;;;;;7.71;100.00;100973.53;5072915;28;20048;-80
2023/02/17 03:29:42;;;;;;;27.65;17.77;;;;;;;6.88;100.00;100806.19;5072391;28;20544;-80
2023/02/17 03:32:09;;;;;;;27.83;16.67;;;;;;;7.90;100.00;101000.25;5054772;28;20071;-80
2023/02/17 03:34:35;;;;;;;27.73;17.52;;;;;;;7.55;100.00;100940.56;5072365;28;20056;-80
2023/02/17 03:37:02;;;;;;;25.85;16.65;;;;;;;7.88;100.00;100997.66;5072883;28;20083;-81
2023/02/17 03:39:30;;;;;;;23.55;16.00;;;;;;;7.78;100.00;100995.31;5072374;28;20498;-79
2023/02/17 03:41:57;;;;;;;28.38;17.52;;;;;;;7.05;100.00;100863.69;5072311;28;20097;-80
2023/02/17 03:44:23;;;;;;;26.95;17.17;;;;;;;6.25;100.00;100716.56;5072724;28;20120;-80
2023/02/17 03:46:50;;;;;;;24.88;16.25;;;;;;;7.02;100.00;100847.97;5072196;28;20044;-79
2023/02/17 03:49:17;;;;;;;24.70;16.80;;;;;;;7.67;100.00;100961.34;5070124;28;20136;-81
2023/02/17 03:51:43;;;;;;;23.85;16.33;;;;;;;7.08;100.00;100847.81;5072954;28;20484;-81
2023/02/17 03:54:10;;;;;;;23.38;16.40;;;;;;;7.91;100.00;100996.72;5072510;28;20131;-80
2023/02/17 03:56:36;;;;;;;24.70;15.27;;;;;;;7.75;100.00;100940.91;5071875;28;20114;-80
2023/02/17 03:59:03;;;;;;;23.98;16.17;;;;;;;7.88;100.00;100960.75;5072301;28;20098;-81
2023/02/17 04:01:30;;;;;;;26.48;15.68;;;;;;;8.06;100.00;100986.63;5072578;28;20493;-81
2023/02/17 04:03:57;;;;;;;26.38;15.80;;;;;;;7.98;100.00;100954.34;5072684;28;20516;-82
2023/02/17 04:06:23;;;;;;;23.83;15.27;;;;;;;7.64;100.00;100904.28;5071075;28;20040;-81
2023/02/17 04:08:50;;;;;;;22.25;14.07;;;;;;;8.17;100.00;100983.72;5072809;28;20049;-80
2023/02/17 04:11:16;;;;;;;21.73;13.35;;;;;;;8.26;100.00;100993.13;5054513;28;20049;-80
2023/02/17 04:13:43;;;;;;;18.73;12.40;;;;;;;7.66;100.00;100875.25;5063523;28;20060;-82
2023/02/17 04:16:10;;;;;;;19.38;12.55;;;;;;;7.97;100.00;100912.19;5072875;28;20090;-81
2023/02/17 04:18:37;;;;;;;16.67;11.38;;;;;;;8.05;100.00;100905.78;5072776;28;20055;-80
2023/02/17 04:21:05;;;;;;;15.95;11.15;;;;;;;8.28;100.00;100928.88;5072298;28;20480;-81
2023/02/17 04:23:34;;;;;;;16.63;12.10;;;;;;;8.52;100.00;100963.38;5073297;28;20059;-83
2023/02/17 04:26:03;;;;;;;14.63;10.93;;;;;;;8.56;100.00;100962.38;5065926;28;20385;-80
2023/02/17 04:28:30;;;;;;;17.38;11.27;;;;;;;8.09;100.00;100862.56;5073419;28;20056;-81
2023/02/17 04:30:58;;;;;;;18.75;11.82;;;;;;;8.10;100.00;100864.31;5056149;28;20120;-79
2023/02/17 04:33:25;;;;;;;16.52;11.90;;;;;;;8.78;100.00;100981.97;5081546;28;20036;-81
2023/02/17 04:35:58;;;;;;;14.40;9.75;;;;;;;8.44;100.00;100919.63;5083994;28;20040;-81
2023/02/17 04:38:29;;;;;;;14.75;10.63;;;;;;;8.42;100.00;100916.16;5068686;28;20063;-79
2023/02/17 04:40:57;;;;;;;12.85;9.40;;;;;;;7.98;100.00;100853.25;5078263;28;20052;-79
2023/02/17 04:43:25;;;;;;;14.98;10.98;;;;;;;8.75;100.00;100975.00;5070578;28;20127;-81
2023/02/17 04:45:52;;;;;;;16.70;10.45;;;;;;;8.83;100.00;100989.72;5077448;28;20040;-80
2023/02/17 04:48:19;;;;;;;15.10;9.38;;;;;;;8.83;100.00;100990.59;5078359;28;20054;-80
2023/02/17 04:50:46;;;;;;;14.27;10.13;;;;;;;8.26;100.00;100900.78;5079392;28;20053;-80
2023/02/17 04:53:13;;;;;;;15.13;10.80;;;;;;;8.57;100.00;100958.84;5078945;28;20071;-81
2023/02/17 04:55:41;;;;;;;13.77;10.32;;;;;;;8.83;100.00;100995.88;5079959;28;20075;-80
2023/02/17 04:58:08;;;;;;;14.88;10.18;;;;;;;8.69;100.00;100961.97;5080124;28;20097;-81
2023/02/17 05:00:35;;;;;;;15.70;9.77;;;;;;;8.54;100.00;100936.03;5078256;28;20070;-81
2023/02/17 05:03:02;;;;;;;14.82;10.10;;;;;;;8.74;100.00;100986.47;5073273;28;20051;-80
2023/02/17 05:05:29;;;;;;;16.83;10.00;;;;;;;7.50;100.00;100771.16;5059637;28;20048;-81
2023/02/17 05:07:55;;;;;;;15.10;9.57;;;;;;;7.91;100.00;100856.97;5065392;28;20471;-81
2023/02/17 05:10:22;;;;;;;17.35;10.75;;;;;;;8.28;100.00;100898.97;5074000;28;20112;-80
2023/02/17 05:12:49;;;;;;;15.55;10.63;;;;;;;8.76;100.00;100984.66;5076381;28;20059;-80
2023/02/17 05:15:16;;;;;;;16.35;9.95;;;;;;;7.97;100.00;100852.38;5076260;28;20553;-81
2023/02/17 05:17:43;;;;;;;13.38;9.63;;;;;;;7.82;100.00;100821.19;5069712;28;20049;-80
2023/02/17 05:20:10;;;;;;;15.45;10.23;;;;;;;8.63;100.00;100951.63;5058865;28;20068;-79
2023/02/17 05:22:37;;;;;;;14.68;9.98;;;;;;;8.57;100.00;100929.81;5076039;28;20052;-80
2023/02/17 05:25:03;;;;;;;14.45;9.40;;;;;;;8.89;100.00;100968.44;5074530;28;20132;-80
2023/02/17 05:27:31;;;;;;;15.95;9.90;;;;;;;8.79;100.00;100955.53;5075829;28;20136;-82
2023/02/17 05:29:58;;;;;;;13.35;8.60;;;;;;;8.29;100.00;100874.31;5076420;28;20068;-81
2023/02/17 05:32:24;;;;;;;12.98;8.02;;;;;;;7.53;100.00;100728.94;5076217;28;20460;-82
2023/02/17 05:34:51;;;;;;;12.90;8.48;;;;;;;7.73;100.00;100781.91;5066879;28;20052;-81
2023/02/17 05:37:18;;;;;;;13.98;8.82;;;;;;;8.75;100.00;100940.69;5075538;28;20147;-82
2023/02/17 05:39:44;;;;;;;13.00;8.52;;;;;;;9.04;100.00;100992.59;5075427;28;20087;-81
2023/02/17 05:42:11;;;;;;;13.13;8.48;;;;;;;8.73;100.00;100947.78;5058712;28;20098;-81
2023/02/17 05:44:38;;;;;;;11.82;8.57;;;;;;;8.98;100.00;100989.25;5077237;28;20397;-82
2023/02/17 05:47:04;;;;;;;15.68;9.00;;;;;;;8.54;100.00;100907.00;5076014;28;20109;-81
2023/02/17 05:49:31;;;;;;;11.40;8.10;;;;;;;8.18;100.00;100844.75;5075369;28;20431;-82
2023/02/17 05:51:58;;;;;;;11.73;8.43;;;;;;;8.56;100.00;100923.66;5056857;28;20072;-81
2023/02/17 05:54:24;;;;;;;12.77;7.95;;;;;;;8.90;100.00;100986.00;5071104;28;20067;-80
2023/02/17 05:56:51;;;;;;;11.73;7.53;;;;;;;8.53;100.00;100918.47;5075908;28;20527;-81
2023/02/17 05:59:18;;;;;;;12.15;7.93;;;;;;;8.09;100.00;100844.13;5057669;28;20052;-80
2023/02/17 06:01:45;;;;;;;10.68;7.60;;;;;;;7.84;100.00;100793.00;5083005;28;20052;-81
2023/02/17 06:04:11;;;;;;;13.15;7.60;;;;;;;8.56;100.00;100902.53;5094052;28;20044;-80
2023/02/17 06:06:38;;;;;;;13.55;8.20;;;;;;;7.85;100.00;100796.53;5093981;28;20055;-81
2023/02/17 06:09:05;;;;;;;10.70;7.70;;;;;;;9.06;100.00;100989.91;5092254;28;20118;-79
2023/02/17 06:11:32;;;;;;;10.18;7.45;;;;;;;9.08;100.00;100988.94;5088219;28;20082;-79
2023/02/17 06:13:59;;;;;;;10.05;7.45;;;;;;;8.07;100.00;100808.13;5089441;28;20044;-80
2023/02/17 06:16:25;;;;;;;10.80;7.97;;;;;;;8.62;100.00;100910.28;5086068;28;20040;-82
2023/02/17 06:18:52;;;;;;;11.25;7.45;;;;;;;8.48;100.00;100877.31;5089658;28;20041;-80
2023/02/17 06:21:19;;;;;;;10.93;7.53;;;;;;;9.08;100.00;100985.44;5072467;28;20076;-80
2023/02/17 06:23:46;;;;;;;10.57;7.15;;;;;;;9.14;100.00;100982.59;5084155;28;20155;-79
2023/02/17 06:26:13;;;;;;;9.57;7.35;;;;;;;8.92;100.00;100950.72;5079853;28;20628;-78
2023/02/17 06:28:40;;;;;;;10.32;7.35;;;;;;;8.86;100.00;100916.56;5075671;28;20143;-80
2023/02/17 06:31:07;;;;;;;10.57;6.90;;;;;;;9.01;100.00;100942.50;5072391;28;20051;-79
2023/02/17 06:33:34;;;;;;;9.75;7.10;;;;;;;8.48;100.00;100845.63;5074921;28;20063;-79
2023/02/17 06:36:01;;;;;;;10.88;7.45;;;;;;;9.15;100.00;100953.47;5071909;28;20075;-79
2023/02/17 06:38:27;;;;;;;9.75;7.30;;;;;;;9.18;100.00;100965.72;5048899;28;20057;-78
2023/02/17 06:40:54;;;;;;;9.30;6.85;;;;;;;8.71;100.00;100901.19;5071366;28;20056;-79
2023/02/17 06:43:21;;;;;;;9.20;6.63;;;;;;;8.68;100.00;100891.59;5051446;28;20553;-79
2023/02/17 06:45:49;;;;;;;13.25;7.18;;;;;;;9.04;100.00;100952.09;5073309;28;20041;-78
2023/02/17 06:48:15;;;;;;;9.15;7.05;;;;;;;8.94;100.00;100937.47;5072453;28;20144;-79
2023/02/17 06:50:42;;;;;;;12.15;7.05;;;;;;;8.85;100.00;100920.13;5073854;28;20048;-79
2023/02/17 06:53:09;;;;;;;10.68;7.50;;;;;;;8.79;100.00;100923.84;5070205;28;20481;-80
2023/02/17 06:55:37;;;;;;;8.38;6.90;;;;;;;8.58;100.00;100879.59;5073766;28;20044;-78
2023/02/17 06:58:04;;;;;;;9.68;6.78;;;;;;;9.05;100.00;100962.63;5074408;28;20158;-80
2023/02/17 07:00:30;;;;;;;9.57;6.75;;;;;;;9.03;100.00;100960.94;5074488;28;20078;-81
2023/02/17 07:02:57;;;;;;;11.13;6.57;;;;;;;9.37;100.00;101006.50;5073625;28;20071;-80
2023/02/17 07:05:24;;;;;;;9.07;6.63;;;;;;;9.23;100.00;100971.75;5074482;28;20682;-78
2023/02/17 07:07:52;;;;;;;8.57;6.28;;;;;;;9.44;100.00;101010.66;5071075;28;20048;-78
2023/02/17 07:10:19;;;;;;;7.40;6.20;;;;;;;8.65;100.00;100880.28;5074223;28;20103;-79
2023/02/17 07:12:45;;;;;;;7.25;5.70;;;;;;;9.14;100.00;100958.81;5071722;28;20055;-79
2023/02/17 07:15:13;;;;;;;8.50;6.38;;;;;;;9.35;100.00;100994.25;5069632;28;20566;-79
2023/02/17 07:17:40;;;;;;;8.23;6.38;;;;;;;9.17;100.00;100968.41;5072211;28;20074;-79
2023/02/17 07:20:08;;;;;;;8.50;6.10;;;;;;;8.71;100.00;100880.06;5074290;28;20044;-80
2023/02/17 07:22:34;;;;;;;7.28;5.82;;;;;;;9.14;100.00;100966.72;5073791;28;20083;-80
2023/02/17 07:25:01;;;;;;;8.32;5.90;;;;;;;9.26;100.00;100963.72;5073437;28;20139;-80
2023/02/17 07:27:28;;;;;;;7.45;6.00;;;;;;;9.09;100.00;100929.06;5055942;28;20143;-79
2023/02/17 07:29:54;;;;;;;7.63;5.70;;;;;;;8.20;100.00;100776.97;5073316;28;20125;-78
2023/02/17 07:32:21;;;;;;;9.35;6.55;;;;;;;8.79;100.00;100886.88;5068091;28;20052;-80
2023/02/17 07:34:48;;;;;;;8.27;6.00;;;;;;;9.46;100.00;100986.84;5073785;28;20056;-79
2023/02/17 07:37:15;;;;;;;10.38;5.90;;;;;;;8.82;100.00;100877.09;5073958;28;20067;-79
2023/02/17 07:39:44;;;;;;;7.38;5.95;;;;;;;9.60;100.00;101015.50;5073799;28;20779;-79
2023/02/17 07:42:11;;;;;;;7.15;6.07;;;;;;;8.68;100.00;100838.78;5057065;28;20098;-79
2023/02/17 07:44:37;;;;;;;7.10;5.55;;;;;;;9.43;100.00;100950.81;5073292;28;20143;-80
2023/02/17 07:47:04;;;;;;;7.20;5.25;;;;;;;9.46;100.00;100950.69;5073848;28;20045;-79
2023/02/17 07:49:31;;;;;;;7.60;5.65;;;;;;;9.23;100.00;100913.59;5068561;28;20715;-79
2023/02/17 07:51:57;;;;;;;7.30;5.82;;;;;;;9.57;100.00;100962.69;5069792;28;20135;-79
2023/02/17 07:54:24;;;;;;;7.72;5.97;;;;;;;9.58;100.00;100961.78;5072479;28;20050;-79
2023/02/17 07:56:50;;;;;;;6.95;5.35;;;;;;;9.74;100.00;100994.72;5071490;28;20045;-79
2023/02/17 07:59:17;;;;;;;7.13;5.45;;;;;;;9.44;100.00;100926.09;5072189;28;20041;-80
2023/02/17 08:01:44;;;;;;;7.07;5.20;;;;;;;9.32;100.00;100910.66;5072775;28;20052;-78
2023/02/17 08:04:11;;;;;;;10.93;5.43;;;;;;;9.93;100.00;101003.75;5072736;28;20048;-79
2023/02/17 08:06:40;;;;;;;10.02;6.15;;;;;;;9.33;100.00;100922.06;5072144;28;20697;-79
2023/02/17 08:14:39;;;;;;;6.57;5.00;;;;;;;9.92;100.00;100987.91;5072051;28;20052;-81
2023/02/17 08:17:06;;;;;;;6.63;5.35;;;;;;;9.54;100.00;100928.44;5064904;28;20052;-81
2023/02/17 08:19:33;;;;;;;7.03;4.70;;;;;;;9.82;100.00;100966.22;5075661;28;20082;-79
2023/02/17 08:22:15;;;;;;;7.07;5.10;;;;;;;10.06;100.00;100988.31;5060086;28;20060;-81
2023/02/17 08:24:41;;;;;;;6.55;4.60;;;;;;;9.69;100.00;100926.13;5076689;28;20049;-79
2023/02/17 08:27:08;;;;;;;6.22;4.47;;;;;;;9.92;100.00;100954.38;5076068;28;20043;-81
2023/02/17 08:29:35;;;;;;;5.88;4.70;;;;;;;9.91;100.00;100959.75;5058060;28;20072;-81
2023/02/17 08:32:01;;;;;;;7.10;4.63;;;;;;;10.11;100.00;100991.66;5075836;28;20493;-81
2023/02/17 08:34:32;;;;;;;5.07;4.35;;;;;;;10.13;100.00;100963.34;5076646;28;20116;-81
2023/02/17 08:37:04;;;;;;;6.05;4.65;;;;;;;10.38;100.00;100998.66;5067357;28;20072;-80
2023/02/17 08:39:32;;;;;;;6.97;4.63;;;;;;;10.07;100.00;100961.78;5073396;28;20090;-81
2023/02/17 08:42:00;;;;;;;5.35;4.50;;;;;;;9.45;100.00;100842.34;5074589;28;20666;-80
2023/02/17 08:44:26;;;;;;;5.18;4.07;;;;;;;9.90;100.00;100905.13;5076701;28;20075;-81
2023/02/17 08:46:53;;;;;;;6.65;4.70;;;;;;;9.95;100.00;100906.66;5058861;28;20044;-79
2023/02/17 08:49:23;;;;;;;8.13;4.88;;;;;;;10.19;100.00;100963.19;5072684;28;20075;-80
2023/02/17 08:51:51;;;;;;;6.00;4.63;;;;;;;10.36;100.00;100976.66;5075473;28;20060;-81
2023/02/17 08:54:17;;;;;;;5.57;4.50;;;;;;;10.48;100.00;100997.38;5075369;28;20058;-79
2023/02/17 08:56:44;;;;;;;7.28;4.40;;;;;;;10.32;100.00;100974.19;5074685;28;20076;-81
2023/02/17 08:59:11;;;;;;;5.07;4.40;;;;;;;10.45;100.00;101009.88;5075788;28;20079;-80
2023/02/17 09:01:39;;;;;;;5.85;4.82;;;;;;;10.45;100.00;101010.72;5074944;28;20053;-80
2023/02/17 09:04:08;;;;;;;6.88;5.07;;;;;;;10.43;100.00;101014.34;5069420;28;20041;-80
2023/02/17 09:06:37;;;;;;;5.85;4.38;;;;;;;9.82;100.00;100911.53;5075354;28;20139;-81
2023/02/17 09:09:07;;;;;;;5.38;4.35;;;;;;;10.26;100.00;100984.97;5074872;28;20056;-80
2023/02/17 09:11:34;;;;;;;5.70;4.93;;;;;;;10.31;100.00;100978.59;5076145;28;20087;-81
2023/02/17 09:14:01;;;;;;;6.72;5.00;;;;;;;9.60;100.00;100862.13;5075757;28;20064;-80
2023/02/17 09:16:28;;;;;;;7.38;5.85;;;;;;;10.35;100.00;101005.84;5074674;28;20056;-79
2023/02/17 09:18:54;;;;;;;6.47;5.00;;;;;;;10.04;100.00;100969.84;5075530;28;20048;-79
2023/02/17 09:21:22;;;;;;;6.13;5.28;;;;;;;10.30;100.00;101013.94;5058101;28;20052;-81
2023/02/17 09:23:49;;;;;;;6.10;5.28;;;;;;;9.79;100.00;100910.78;5076335;28;20053;-79
2023/02/17 09:26:17;;;;;;;6.95;5.50;;;;;;;9.83;100.00;100912.41;5075559;28;20094;-81
2023/02/17 09:28:46;;;;;;;11.43;7.53;;;;;;;10.30;100.00;100999.84;5072433;28;20049;-79
2023/02/17 09:31:16;;;;;;;8.30;5.93;;;;;;;10.47;100.00;101023.91;5076782;28;20063;-79
2023/02/17 09:33:46;;;;;;;7.38;5.80;;;;;;;10.49;100.00;101019.44;5076678;28;20056;-79
2023/02/17 09:36:14;;;;;;;11.25;6.22;;;;;;;10.24;100.00;100976.22;5067932;28;20036;-79
2023/02/17 09:38:41;;;;;;;10.43;6.00;;;;;;;10.49;100.00;101015.00;5075294;28;20052;-79
2023/02/17 09:41:17;;;;;;;6.75;5.30;;;;;;;10.22;100.00;100967.50;5075300;28;20072;-79
2023/02/17 09:43:44;;;;;;;7.50;5.85;;;;;;;9.49;100.00;100836.91;5071675;28;20057;-78
2023/02/17 09:46:28;;;;;;;6.97;6.18;;;;;;;10.24;100.00;100940.03;5066265;28;20087;-81
2023/02/17 09:49:02;;;;;;;8.80;6.20;;;;;;;10.67;100.00;101002.00;5074688;28;20053;-80
2023/02/17 09:51:34;;;;;;;10.15;6.38;;;;;;;10.71;100.00;100999.16;5069019;28;20048;-79
2023/02/17 09:54:13;;;;;;;8.30;6.15;;;;;;;10.11;100.00;100880.50;5066245;28;20067;-80
2023/02/17 09:56:45;;;;;;;8.40;6.57;;;;;;;10.52;100.00;100948.69;5074745;28;20083;-79
2023/02/17 09:59:20;;;;;;;7.28;5.93;;;;;;;9.63;100.00;100809.97;5074896;28;20106;-80
2023/02/17 10:01:50;;;;;;;9.90;6.80;;;;;;;10.79;100.00;100986.50;5074405;28;20063;-79
2023/02/17 10:04:26;;;;;;;8.38;6.95;;;;;;;10.13;100.00;100863.66;5056192;28;20135;-80
2023/02/17 10:07:11;;;;;;;10.38;7.15;;;;;;;10.88;100.00;100986.13;5071516;28;20041;-79
2023/02/17 10:09:52;;;;;;;11.65;7.47;;;;;;;11.00;100.00;101010.44;5074787;28;20581;-82
2023/02/17 10:12:24;;;;;;;9.65;7.32;;;;;;;10.25;100.00;100886.19;5067897;28;20588;-79
2023/02/17 10:15:02;;;;;;;9.70;7.03;;;;;;;10.83;100.00;100980.16;5056482;28;20051;-80
2023/02/17 10:17:41;;;;;;;10.52;6.78;;;;;;;10.57;100.00;100937.03;5074443;28;20045;-81
2023/02/17 10:20:14;;;;;;;10.20;7.30;;;;;;;11.14;100.00;101013.41;5074414;28;20078;-80
2023/02/17 10:22:46;;;;;;;10.07;7.35;;;;;;;10.96;100.00;100980.56;5056369;28;20052;-81
2023/02/17 10:25:18;;;;;;;11.35;7.68;;;;;;;10.46;100.00;100897.75;5074195;28;20116;-79
2023/02/17 10:27:54;;;;;;;12.43;8.02;;;;;;;11.33;100.00;101018.88;5074594;28;20067;-81
2023/02/17 10:31:04;;;;;;;10.63;7.68;;;;;;;11.56;100.00;101018.78;5074799;28;20047;-81
2023/02/17 10:33:35;;;;;;;10.80;7.53;;;;;;;11.64;100.00;101026.44;5051935;28;20048;-82
2023/02/17 10:36:01;;;;;;;;;;;;;;;11.66;100.00;101027.19;5074800;28;20044;-79
2023/02/17 10:38:40;;;;;;;9.30;7.10;;;;;;;11.63;100.00;101032.66;5080638;28;19924;-80
2023/02/17 10:41:11;;;;;;;9.73;7.32;;;;;;;10.96;100.00;100914.31;5085344;28;20166;-81
2023/02/17 10:43:38;;;;;;;;;;;;;;;11.69;100.00;101021.78;5087875;28;20044;-80
2023/02/17 10:46:07;;;;;;;10.35;7.00;;;;;;;11.71;100.00;101033.19;5066535;28;19979;-81
2023/02/17 10:48:34;;;;;;;12.75;6.15;;;;;;;11.68;100.00;101028.00;5082011;28;20052;-80
2023/02/17 10:51:01;;;;;;;9.02;6.45;;;;;;;11.56;100.00;101032.91;5077367;28;20071;-80
2023/02/17 10:53:32;;;;;;;9.93;7.35;;;;;;;11.39;100.00;101003.53;5078600;28;20438;-80
2023/02/17 10:56:08;;;;;;;11.75;6.75;;;;;;;11.46;100.00;101031.56;5074064;28;20056;-79
2023/02/17 10:58:40;;;;;;;10.30;7.32;;;;;;;11.47;100.00;101016.50;5074982;28;20049;-79
2023/02/17 11:01:07;;;;;;;13.52;7.20;;;;;;;11.41;100.00;101017.63;5073570;28;20064;-79
2023/02/17 11:03:36;;;;;;;9.40;6.72;;;;;;;11.31;100.00;100988.88;5073535;28;20048;-81
2023/02/17 11:06:25;;;;;;;10.00;7.27;;;;;;;10.68;100.00;100885.41;5072793;28;20052;-79
2023/02/17 11:08:58;;;;;;;10.25;7.55;;;;;;;11.50;100.00;101022.53;5073053;28;20341;-81
2023/02/17 11:11:29;;;;;;;10.45;6.55;;;;;;;10.52;100.00;100853.38;5072955;28;20040;-80
2023/02/17 11:14:03;;;;;;;8.10;6.18;;;;;;;11.52;100.00;101030.44;5072671;28;20079;-79
2023/02/17 11:16:35;;;;;;;9.35;6.50;;;;;;;11.58;100.00;101009.84;5070791;28;20101;-80
2023/02/17 11:19:04;;;;;;;11.55;6.85;;;;;;;11.06;100.00;100914.78;5073314;28;20122;-81
2023/02/17 11:21:34;;;;;;;7.75;5.70;;;;;;;11.44;100.00;100969.75;5074031;28;20056;-79
2023/02/17 11:24:04;;;;;;;;;;;;;;;11.75;100.00;101001.16;5073211;28;20135;-80
2023/02/17 11:26:34;;;;;;;7.70;4.90;;;;;;;11.38;100.00;100947.91;5070050;28;20356;-79
2023/02/17 11:29:16;;;;;;;7.68;5.30;;;;;;;11.76;100.00;100994.09;5071603;28;20049;-81
2023/02/17 11:31:57;;;;;;;7.60;5.40;;;;;;;11.64;100.00;100963.63;5069187;28;20052;-80